首页
METAR-TAF:

METAR-TAF

机场 :

伏尔加格勒, 俄罗斯

纬度: 48-47N, 经度: 044-22E, 海拔: 145米

当前天气观测

该预报发布于21分钟前的22:00 UTC
风速8节,风向
温度 10°C
湿度 100%
气压 1013 hPa
能見度: 6000

METAR: URWW 252200Z 17004MPS 6000 NSC 10/10 Q1013 R24/290060 BECMG 0400 FG OVC002

时间: 01:21 (22:21 UTC)

预报

该预报发布于8分钟前的22:13 UTC
预报有效从25日的 22点(UTC)到 26日的 06点(UTC)
风速6节,风向南转南东,有时为16节阵风
能見度: 3100
多云层高于1100英尺
多云层高于2000英尺, 积雨云.
小阵雨, 轻雾
短暂存在
从 25日的 22点(UTC)到 26日的 04点(UTC)
风速12节,风向,有时为21节阵风
能見度: 0400
多云层高于300英尺
多云层高于2000英尺, 积雨云.
短暂存在
从 26日的 04点(UTC)到 26日的 06点(UTC)
风速14节,风向西南,有时为25节阵风

TAF: URWW 252213Z 2522/2606 16003G08MPS 3100 -SHRA BR BKN011 BKN020CB TEMPO 2522/2604 19006G11MPS 0400 FG BKN003 BKN020CB TEMPO 2604/2606 22007G13MPS

超过4000个机场的气象观测和天气预报(METAR&TAF报告)。

可查询的气象台以黄色和红色小点在地图上表示。

将鼠标移到小点上方,可查看气象台名称。

然后点击查看天气观测和预报。

如需切换地图:点击带黑十字的绿色按钮放大地图;点击带横线的绿色按钮缩小地图;或者点击绿色箭头查看邻近地区的地图。


METAR-TAF: